sensor_id;sensor_type;location;lat;lon;timestamp;P1;durP1;ratioP1;P2;durP2;ratioP2
3443;SDS011;1736;52.068;6.968;2023-06-14T00:00:46;6.37;;;2.97;;
3443;SDS011;1736;52.068;6.968;2023-06-14T00:03:13;7.20;;;3.27;;
3443;SDS011;1736;52.068;6.968;2023-06-14T00:05:42;8.10;;;3.60;;
3443;SDS011;1736;52.068;6.968;2023-06-14T00:08:09;4.77;;;3.00;;
3443;SDS011;1736;52.068;6.968;2023-06-14T00:10:36;5.60;;;3.50;;
3443;SDS011;1736;52.068;6.968;2023-06-14T00:13:06;11.03;;;4.20;;
3443;SDS011;1736;52.068;6.968;2023-06-14T00:15:33;7.43;;;3.90;;
3443;SDS011;1736;52.068;6.968;2023-06-14T00:18:01;5.00;;;3.90;;
3443;SDS011;1736;52.068;6.968;2023-06-14T00:20:28;3.80;;;3.23;;
3443;SDS011;1736;52.068;6.968;2023-06-14T00:22:55;7.00;;;3.67;;
3443;SDS011;1736;52.068;6.968;2023-06-14T00:25:22;4.80;;;3.50;;
3443;SDS011;1736;52.068;6.968;2023-06-14T00:27:50;19.13;;;3.40;;
3443;SDS011;1736;52.068;6.968;2023-06-14T00:30:17;7.97;;;3.60;;
3443;SDS011;1736;52.068;6.968;2023-06-14T00:32:44;7.87;;;3.80;;
3443;SDS011;1736;52.068;6.968;2023-06-14T00:35:12;9.43;;;3.30;;
3443;SDS011;1736;52.068;6.968;2023-06-14T00:37:39;4.87;;;3.17;;
3443;SDS011;1736;52.068;6.968;2023-06-14T00:40:06;4.60;;;3.10;;
3443;SDS011;1736;52.068;6.968;2023-06-14T00:42:33;4.07;;;2.80;;
3443;SDS011;1736;52.068;6.968;2023-06-14T00:45:00;4.40;;;3.30;;
3443;SDS011;1736;52.068;6.968;2023-06-14T00:47:27;3.70;;;3.20;;
3443;SDS011;1736;52.068;6.968;2023-06-14T00:49:53;11.40;;;3.53;;
3443;SDS011;1736;52.068;6.968;2023-06-14T00:52:22;8.17;;;3.97;;
3443;SDS011;1736;52.068;6.968;2023-06-14T00:54:50;9.13;;;3.73;;
3443;SDS011;1736;52.068;6.968;2023-06-14T00:57:17;6.47;;;3.40;;
3443;SDS011;1736;52.068;6.968;2023-06-14T00:59:44;6.77;;;3.60;;
3443;SDS011;1736;52.068;6.968;2023-06-14T01:02:11;5.27;;;3.80;;
3443;SDS011;1736;52.068;6.968;2023-06-14T01:04:40;3.57;;;3.13;;
3443;SDS011;1736;52.068;6.968;2023-06-14T01:07:10;9.43;;;3.73;;
3443;SDS011;1736;52.068;6.968;2023-06-14T01:09:46;6.90;;;3.00;;
3443;SDS011;1736;52.068;6.968;2023-06-14T01:12:21;4.00;;;3.53;;
3443;SDS011;1736;52.068;6.968;2023-06-14T01:14:53;5.70;;;3.30;;
3443;SDS011;1736;52.068;6.968;2023-06-14T01:17:20;4.80;;;3.27;;
3443;SDS011;1736;52.068;6.968;2023-06-14T01:19:48;9.23;;;3.97;;
3443;SDS011;1736;52.068;6.968;2023-06-14T01:22:23;4.10;;;3.60;;
3443;SDS011;1736;52.068;6.968;2023-06-14T01:24:52;5.50;;;3.20;;
3443;SDS011;1736;52.068;6.968;2023-06-14T01:27:20;6.60;;;3.77;;
3443;SDS011;1736;52.068;6.968;2023-06-14T01:29:48;3.60;;;3.00;;
3443;SDS011;1736;52.068;6.968;2023-06-14T01:32:16;5.17;;;3.43;;
3443;SDS011;1736;52.068;6.968;2023-06-14T01:34:44;7.93;;;3.40;;
3443;SDS011;1736;52.068;6.968;2023-06-14T01:37:11;12.67;;;4.10;;
3443;SDS011;1736;52.068;6.968;2023-06-14T01:39:39;3.60;;;3.30;;
3443;SDS011;1736;52.068;6.968;2023-06-14T01:42:10;4.33;;;3.23;;
3443;SDS011;1736;52.068;6.968;2023-06-14T01:44:37;9.97;;;3.50;;
3443;SDS011;1736;52.068;6.968;2023-06-14T01:47:04;9.57;;;4.20;;
3443;SDS011;1736;52.068;6.968;2023-06-14T01:49:33;7.97;;;3.40;;
3443;SDS011;1736;52.068;6.968;2023-06-14T01:52:00;5.77;;;3.40;;
3443;SDS011;1736;52.068;6.968;2023-06-14T01:54:26;4.23;;;3.83;;
3443;SDS011;1736;52.068;6.968;2023-06-14T01:56:54;3.63;;;3.33;;
3443;SDS011;1736;52.068;6.968;2023-06-14T01:59:22;4.47;;;3.47;;
3443;SDS011;1736;52.068;6.968;2023-06-14T02:01:49;3.77;;;3.00;;
3443;SDS011;1736;52.068;6.968;2023-06-14T02:04:16;3.83;;;3.20;;
3443;SDS011;1736;52.068;6.968;2023-06-14T02:06:43;5.33;;;3.97;;
3443;SDS011;1736;52.068;6.968;2023-06-14T02:09:09;4.37;;;3.23;;
3443;SDS011;1736;52.068;6.968;2023-06-14T02:11:36;8.63;;;3.20;;
3443;SDS011;1736;52.068;6.968;2023-06-14T02:14:02;5.30;;;3.63;;
3443;SDS011;1736;52.068;6.968;2023-06-14T02:16:30;4.73;;;3.10;;
3443;SDS011;1736;52.068;6.968;2023-06-14T02:18:57;7.60;;;3.67;;
3443;SDS011;1736;52.068;6.968;2023-06-14T02:21:24;5.87;;;3.97;;
3443;SDS011;1736;52.068;6.968;2023-06-14T02:23:50;3.63;;;3.20;;
3443;SDS011;1736;52.068;6.968;2023-06-14T02:26:17;8.07;;;3.93;;
3443;SDS011;1736;52.068;6.968;2023-06-14T02:28:44;5.80;;;3.10;;
3443;SDS011;1736;52.068;6.968;2023-06-14T02:31:10;5.20;;;3.43;;
3443;SDS011;1736;52.068;6.968;2023-06-14T02:33:39;8.50;;;3.40;;
3443;SDS011;1736;52.068;6.968;2023-06-14T02:36:06;6.23;;;3.50;;
3443;SDS011;1736;52.068;6.968;2023-06-14T02:38:32;6.30;;;4.03;;
3443;SDS011;1736;52.068;6.968;2023-06-14T02:40:59;3.57;;;3.27;;
3443;SDS011;1736;52.068;6.968;2023-06-14T02:43:28;4.33;;;3.10;;
3443;SDS011;1736;52.068;6.968;2023-06-14T02:45:55;4.83;;;3.77;;
3443;SDS011;1736;52.068;6.968;2023-06-14T02:48:22;4.90;;;3.40;;
3443;SDS011;1736;52.068;6.968;2023-06-14T02:50:49;3.80;;;3.40;;
3443;SDS011;1736;52.068;6.968;2023-06-14T02:53:16;4.13;;;3.20;;
3443;SDS011;1736;52.068;6.968;2023-06-14T02:55:43;6.93;;;3.70;;
3443;SDS011;1736;52.068;6.968;2023-06-14T02:58:09;3.77;;;3.30;;
3443;SDS011;1736;52.068;6.968;2023-06-14T03:00:36;4.93;;;3.50;;
3443;SDS011;1736;52.068;6.968;2023-06-14T03:03:03;4.73;;;3.43;;
3443;SDS011;1736;52.068;6.968;2023-06-14T03:05:34;4.67;;;3.70;;
3443;SDS011;1736;52.068;6.968;2023-06-14T03:08:02;4.03;;;3.63;;
3443;SDS011;1736;52.068;6.968;2023-06-14T03:10:30;4.00;;;3.20;;
3443;SDS011;1736;52.068;6.968;2023-06-14T03:12:57;4.10;;;3.70;;
3443;SDS011;1736;52.068;6.968;2023-06-14T03:15:24;9.23;;;3.70;;
3443;SDS011;1736;52.068;6.968;2023-06-14T03:17:52;4.73;;;3.50;;
3443;SDS011;1736;52.068;6.968;2023-06-14T03:20:18;4.63;;;3.80;;
3443;SDS011;1736;52.068;6.968;2023-06-14T03:22:45;5.33;;;3.50;;
3443;SDS011;1736;52.068;6.968;2023-06-14T03:25:14;6.20;;;3.77;;
3443;SDS011;1736;52.068;6.968;2023-06-14T03:27:41;5.57;;;3.80;;
3443;SDS011;1736;52.068;6.968;2023-06-14T03:30:08;5.57;;;3.60;;
3443;SDS011;1736;52.068;6.968;2023-06-14T03:32:35;4.67;;;3.30;;
3443;SDS011;1736;52.068;6.968;2023-06-14T03:35:01;4.37;;;3.20;;
3443;SDS011;1736;52.068;6.968;2023-06-14T03:37:28;3.90;;;3.37;;
3443;SDS011;1736;52.068;6.968;2023-06-14T03:39:54;7.00;;;4.00;;
3443;SDS011;1736;52.068;6.968;2023-06-14T03:42:22;5.40;;;3.80;;
3443;SDS011;1736;52.068;6.968;2023-06-14T03:44:49;5.40;;;3.20;;
3443;SDS011;1736;52.068;6.968;2023-06-14T03:47:16;8.07;;;3.43;;
3443;SDS011;1736;52.068;6.968;2023-06-14T03:49:42;8.60;;;3.60;;
3443;SDS011;1736;52.068;6.968;2023-06-14T03:52:09;10.47;;;3.23;;
3443;SDS011;1736;52.068;6.968;2023-06-14T03:54:36;4.87;;;3.30;;
3443;SDS011;1736;52.068;6.968;2023-06-14T03:57:02;9.93;;;4.07;;
3443;SDS011;1736;52.068;6.968;2023-06-14T03:59:30;8.03;;;3.97;;
3443;SDS011;1736;52.068;6.968;2023-06-14T04:01:57;6.80;;;3.53;;
3443;SDS011;1736;52.068;6.968;2023-06-14T04:04:23;9.30;;;4.03;;
3443;SDS011;1736;52.068;6.968;2023-06-14T04:06:53;6.27;;;3.37;;
3443;SDS011;1736;52.068;6.968;2023-06-14T04:09:21;4.20;;;3.43;;
3443;SDS011;1736;52.068;6.968;2023-06-14T04:11:49;5.57;;;3.90;;
3443;SDS011;1736;52.068;6.968;2023-06-14T04:14:16;4.47;;;3.70;;
3443;SDS011;1736;52.068;6.968;2023-06-14T04:16:44;4.30;;;3.77;;
3443;SDS011;1736;52.068;6.968;2023-06-14T04:19:11;9.80;;;4.30;;
3443;SDS011;1736;52.068;6.968;2023-06-14T04:21:37;5.67;;;4.10;;
3443;SDS011;1736;52.068;6.968;2023-06-14T04:24:04;4.30;;;3.50;;
3443;SDS011;1736;52.068;6.968;2023-06-14T04:26:31;3.40;;;3.10;;
3443;SDS011;1736;52.068;6.968;2023-06-14T04:28:58;3.90;;;3.30;;
3443;SDS011;1736;52.068;6.968;2023-06-14T04:31:26;10.07;;;3.87;;
3443;SDS011;1736;52.068;6.968;2023-06-14T04:33:55;9.40;;;3.77;;
3443;SDS011;1736;52.068;6.968;2023-06-14T04:36:22;4.80;;;3.83;;
3443;SDS011;1736;52.068;6.968;2023-06-14T04:38:50;5.97;;;3.20;;
3443;SDS011;1736;52.068;6.968;2023-06-14T04:41:19;4.10;;;3.50;;
3443;SDS011;1736;52.068;6.968;2023-06-14T04:43:48;3.40;;;3.10;;
3443;SDS011;1736;52.068;6.968;2023-06-14T04:46:14;7.30;;;3.10;;
3443;SDS011;1736;52.068;6.968;2023-06-14T04:48:42;4.80;;;3.57;;
3443;SDS011;1736;52.068;6.968;2023-06-14T04:51:10;6.03;;;3.80;;
3443;SDS011;1736;52.068;6.968;2023-06-14T04:53:38;7.50;;;3.70;;
3443;SDS011;1736;52.068;6.968;2023-06-14T04:56:04;7.70;;;4.00;;
3443;SDS011;1736;52.068;6.968;2023-06-14T04:58:32;4.93;;;3.50;;
3443;SDS011;1736;52.068;6.968;2023-06-14T05:00:59;10.47;;;3.57;;
3443;SDS011;1736;52.068;6.968;2023-06-14T05:03:26;10.37;;;3.17;;
3443;SDS011;1736;52.068;6.968;2023-06-14T05:05:55;4.73;;;3.77;;
3443;SDS011;1736;52.068;6.968;2023-06-14T05:08:23;8.37;;;3.27;;
3443;SDS011;1736;52.068;6.968;2023-06-14T05:10:50;11.33;;;3.33;;
3443;SDS011;1736;52.068;6.968;2023-06-14T05:13:17;4.20;;;3.30;;
3443;SDS011;1736;52.068;6.968;2023-06-14T05:15:44;11.73;;;3.13;;
3443;SDS011;1736;52.068;6.968;2023-06-14T05:18:11;4.60;;;3.33;;
3443;SDS011;1736;52.068;6.968;2023-06-14T05:20:38;3.50;;;3.10;;
3443;SDS011;1736;52.068;6.968;2023-06-14T05:23:06;4.43;;;3.40;;
3443;SDS011;1736;52.068;6.968;2023-06-14T05:25:35;5.53;;;3.40;;
3443;SDS011;1736;52.068;6.968;2023-06-14T05:28:02;5.47;;;3.00;;
3443;SDS011;1736;52.068;6.968;2023-06-14T05:30:29;7.73;;;3.70;;
3443;SDS011;1736;52.068;6.968;2023-06-14T05:32:58;4.50;;;3.60;;
3443;SDS011;1736;52.068;6.968;2023-06-14T05:35:24;4.83;;;2.87;;
3443;SDS011;1736;52.068;6.968;2023-06-14T05:37:52;14.13;;;2.80;;
3443;SDS011;1736;52.068;6.968;2023-06-14T05:40:19;4.90;;;2.77;;
3443;SDS011;1736;52.068;6.968;2023-06-14T05:42:47;3.47;;;3.17;;
3443;SDS011;1736;52.068;6.968;2023-06-14T05:45:14;5.23;;;3.00;;
3443;SDS011;1736;52.068;6.968;2023-06-14T05:47:41;5.07;;;3.50;;
3443;SDS011;1736;52.068;6.968;2023-06-14T05:50:08;4.40;;;3.10;;
3443;SDS011;1736;52.068;6.968;2023-06-14T05:52:35;8.00;;;3.20;;
3443;SDS011;1736;52.068;6.968;2023-06-14T05:55:02;3.33;;;3.00;;
3443;SDS011;1736;52.068;6.968;2023-06-14T05:57:30;7.30;;;3.23;;
3443;SDS011;1736;52.068;6.968;2023-06-14T05:59:58;3.70;;;3.03;;
3443;SDS011;1736;52.068;6.968;2023-06-14T06:02:24;4.70;;;3.27;;
3443;SDS011;1736;52.068;6.968;2023-06-14T06:04:51;4.33;;;2.77;;
3443;SDS011;1736;52.068;6.968;2023-06-14T06:07:17;4.93;;;3.20;;
3443;SDS011;1736;52.068;6.968;2023-06-14T06:09:44;3.83;;;2.57;;
3443;SDS011;1736;52.068;6.968;2023-06-14T06:12:11;4.17;;;2.93;;
3443;SDS011;1736;52.068;6.968;2023-06-14T06:14:37;4.03;;;2.87;;
3443;SDS011;1736;52.068;6.968;2023-06-14T06:17:05;4.70;;;2.70;;
3443;SDS011;1736;52.068;6.968;2023-06-14T06:19:32;5.97;;;3.20;;
3443;SDS011;1736;52.068;6.968;2023-06-14T06:21:59;3.97;;;3.10;;
3443;SDS011;1736;52.068;6.968;2023-06-14T06:24:25;2.77;;;2.57;;
3443;SDS011;1736;52.068;6.968;2023-06-14T06:26:52;3.23;;;2.80;;
3443;SDS011;1736;52.068;6.968;2023-06-14T06:29:19;3.23;;;2.73;;
3443;SDS011;1736;52.068;6.968;2023-06-14T06:31:46;5.33;;;2.40;;
3443;SDS011;1736;52.068;6.968;2023-06-14T06:34:13;4.00;;;2.80;;
3443;SDS011;1736;52.068;6.968;2023-06-14T06:36:40;2.87;;;2.37;;
3443;SDS011;1736;52.068;6.968;2023-06-14T06:39:07;6.77;;;2.80;;
3443;SDS011;1736;52.068;6.968;2023-06-14T06:41:35;4.77;;;2.70;;
3443;SDS011;1736;52.068;6.968;2023-06-14T06:44:03;2.93;;;2.50;;
3443;SDS011;1736;52.068;6.968;2023-06-14T06:46:29;3.33;;;2.17;;
3443;SDS011;1736;52.068;6.968;2023-06-14T06:48:56;4.13;;;2.80;;
3443;SDS011;1736;52.068;6.968;2023-06-14T06:51:24;2.47;;;2.27;;
3443;SDS011;1736;52.068;6.968;2023-06-14T06:53:51;4.50;;;2.10;;
3443;SDS011;1736;52.068;6.968;2023-06-14T06:56:18;9.10;;;2.70;;
3443;SDS011;1736;52.068;6.968;2023-06-14T06:58:46;3.97;;;2.47;;
3443;SDS011;1736;52.068;6.968;2023-06-14T07:01:13;2.03;;;1.90;;
3443;SDS011;1736;52.068;6.968;2023-06-14T07:03:40;6.63;;;2.50;;
3443;SDS011;1736;52.068;6.968;2023-06-14T07:06:07;4.90;;;2.50;;
3443;SDS011;1736;52.068;6.968;2023-06-14T07:08:35;3.10;;;2.27;;
3443;SDS011;1736;52.068;6.968;2023-06-14T07:11:03;6.40;;;2.73;;
3443;SDS011;1736;52.068;6.968;2023-06-14T07:13:30;3.57;;;2.30;;
3443;SDS011;1736;52.068;6.968;2023-06-14T07:15:57;11.10;;;2.43;;
3443;SDS011;1736;52.068;6.968;2023-06-14T07:18:25;3.40;;;2.43;;
3443;SDS011;1736;52.068;6.968;2023-06-14T07:20:52;6.03;;;2.30;;
3443;SDS011;1736;52.068;6.968;2023-06-14T07:23:19;6.60;;;2.47;;
3443;SDS011;1736;52.068;6.968;2023-06-14T07:25:47;3.83;;;2.57;;
3443;SDS011;1736;52.068;6.968;2023-06-14T07:28:14;2.40;;;2.20;;
3443;SDS011;1736;52.068;6.968;2023-06-14T07:30:41;6.70;;;2.77;;
3443;SDS011;1736;52.068;6.968;2023-06-14T07:33:07;2.27;;;2.07;;
3443;SDS011;1736;52.068;6.968;2023-06-14T07:35:35;2.30;;;2.10;;
3443;SDS011;1736;52.068;6.968;2023-06-14T07:38:01;2.50;;;2.20;;
3443;SDS011;1736;52.068;6.968;2023-06-14T07:40:28;2.80;;;2.60;;
3443;SDS011;1736;52.068;6.968;2023-06-14T07:42:56;6.67;;;2.33;;
3443;SDS011;1736;52.068;6.968;2023-06-14T07:45:23;2.40;;;2.20;;
3443;SDS011;1736;52.068;6.968;2023-06-14T07:47:49;5.00;;;1.83;;
3443;SDS011;1736;52.068;6.968;2023-06-14T07:50:16;7.43;;;2.10;;
3443;SDS011;1736;52.068;6.968;2023-06-14T07:52:43;3.60;;;2.43;;
3443;SDS011;1736;52.068;6.968;2023-06-14T07:55:10;2.90;;;2.30;;
3443;SDS011;1736;52.068;6.968;2023-06-14T07:57:36;2.10;;;1.90;;
3443;SDS011;1736;52.068;6.968;2023-06-14T08:00:06;2.07;;;1.97;;
3443;SDS011;1736;52.068;6.968;2023-06-14T08:02:35;5.27;;;2.33;;
3443;SDS011;1736;52.068;6.968;2023-06-14T08:05:02;2.70;;;2.00;;
3443;SDS011;1736;52.068;6.968;2023-06-14T08:07:28;3.90;;;2.07;;
3443;SDS011;1736;52.068;6.968;2023-06-14T08:09:55;6.87;;;2.03;;
3443;SDS011;1736;52.068;6.968;2023-06-14T08:12:22;3.97;;;2.40;;
3443;SDS011;1736;52.068;6.968;2023-06-14T08:14:48;9.07;;;2.10;;
3443;SDS011;1736;52.068;6.968;2023-06-14T08:17:16;2.83;;;2.40;;
3443;SDS011;1736;52.068;6.968;2023-06-14T08:19:43;2.03;;;1.80;;
3443;SDS011;1736;52.068;6.968;2023-06-14T08:22:09;3.70;;;1.97;;
3443;SDS011;1736;52.068;6.968;2023-06-14T08:24:37;2.53;;;2.20;;
3443;SDS011;1736;52.068;6.968;2023-06-14T08:27:04;4.73;;;2.87;;
3443;SDS011;1736;52.068;6.968;2023-06-14T08:29:31;3.93;;;2.03;;
3443;SDS011;1736;52.068;6.968;2023-06-14T08:31:58;6.47;;;2.30;;
3443;SDS011;1736;52.068;6.968;2023-06-14T08:34:26;5.00;;;2.23;;
3443;SDS011;1736;52.068;6.968;2023-06-14T08:36:53;2.27;;;1.73;;
3443;SDS011;1736;52.068;6.968;2023-06-14T08:39:20;2.40;;;2.20;;
3443;SDS011;1736;52.068;6.968;2023-06-14T08:41:47;2.73;;;2.17;;
3443;SDS011;1736;52.068;6.968;2023-06-14T08:44:14;2.27;;;2.07;;
3443;SDS011;1736;52.068;6.968;2023-06-14T08:46:41;2.20;;;2.00;;
3443;SDS011;1736;52.068;6.968;2023-06-14T08:49:08;2.57;;;2.37;;
3443;SDS011;1736;52.068;6.968;2023-06-14T08:51:39;13.03;;;2.43;;
3443;SDS011;1736;52.068;6.968;2023-06-14T08:54:06;2.67;;;2.47;;
3443;SDS011;1736;52.068;6.968;2023-06-14T08:56:33;3.33;;;2.00;;
3443;SDS011;1736;52.068;6.968;2023-06-14T08:59:03;2.20;;;2.00;;
3443;SDS011;1736;52.068;6.968;2023-06-14T09:01:32;3.53;;;2.30;;
3443;SDS011;1736;52.068;6.968;2023-06-14T09:04:00;3.67;;;2.23;;
3443;SDS011;1736;52.068;6.968;2023-06-14T09:06:27;4.87;;;2.20;;
3443;SDS011;1736;52.068;6.968;2023-06-14T09:08:55;5.20;;;2.23;;
3443;SDS011;1736;52.068;6.968;2023-06-14T09:11:22;2.00;;;1.90;;
3443;SDS011;1736;52.068;6.968;2023-06-14T09:13:51;2.30;;;2.10;;
3443;SDS011;1736;52.068;6.968;2023-06-14T09:16:17;2.10;;;1.90;;
3443;SDS011;1736;52.068;6.968;2023-06-14T09:18:45;2.40;;;2.13;;
3443;SDS011;1736;52.068;6.968;2023-06-14T09:21:13;2.47;;;2.00;;
3443;SDS011;1736;52.068;6.968;2023-06-14T09:23:41;4.80;;;2.40;;
3443;SDS011;1736;52.068;6.968;2023-06-14T09:26:10;2.80;;;2.30;;
3443;SDS011;1736;52.068;6.968;2023-06-14T09:28:40;4.57;;;2.20;;
3443;SDS011;1736;52.068;6.968;2023-06-14T09:31:07;2.70;;;2.30;;
3443;SDS011;1736;52.068;6.968;2023-06-14T09:33:35;2.50;;;2.30;;
3443;SDS011;1736;52.068;6.968;2023-06-14T09:36:01;3.27;;;2.00;;
3443;SDS011;1736;52.068;6.968;2023-06-14T09:38:29;5.03;;;2.27;;
3443;SDS011;1736;52.068;6.968;2023-06-14T09:40:56;3.33;;;2.10;;
3443;SDS011;1736;52.068;6.968;2023-06-14T09:43:25;5.03;;;2.40;;
3443;SDS011;1736;52.068;6.968;2023-06-14T09:45:53;3.53;;;2.30;;
3443;SDS011;1736;52.068;6.968;2023-06-14T09:48:20;2.73;;;2.10;;
3443;SDS011;1736;52.068;6.968;2023-06-14T09:50:47;4.80;;;2.30;;
3443;SDS011;1736;52.068;6.968;2023-06-14T09:53:16;2.50;;;2.23;;
3443;SDS011;1736;52.068;6.968;2023-06-14T09:55:47;2.97;;;2.40;;
3443;SDS011;1736;52.068;6.968;2023-06-14T09:58:16;2.80;;;2.10;;
3443;SDS011;1736;52.068;6.968;2023-06-14T10:00:47;2.60;;;2.10;;
3443;SDS011;1736;52.068;6.968;2023-06-14T10:03:19;2.37;;;2.17;;
3443;SDS011;1736;52.068;6.968;2023-06-14T10:05:50;3.47;;;2.10;;
3443;SDS011;1736;52.068;6.968;2023-06-14T10:08:18;2.63;;;2.40;;
3443;SDS011;1736;52.068;6.968;2023-06-14T10:10:49;5.27;;;1.90;;
3443;SDS011;1736;52.068;6.968;2023-06-14T10:13:16;2.20;;;2.10;;
3443;SDS011;1736;52.068;6.968;2023-06-14T10:15:46;2.03;;;1.93;;
3443;SDS011;1736;52.068;6.968;2023-06-14T10:18:24;3.37;;;2.03;;
3443;SDS011;1736;52.068;6.968;2023-06-14T10:21:01;3.43;;;2.07;;
3443;SDS011;1736;52.068;6.968;2023-06-14T10:23:34;2.20;;;1.90;;
3443;SDS011;1736;52.068;6.968;2023-06-14T10:26:04;2.33;;;1.90;;
3443;SDS011;1736;52.068;6.968;2023-06-14T10:28:30;3.47;;;2.03;;
3443;SDS011;1736;52.068;6.968;2023-06-14T10:31:06;2.50;;;2.30;;
3443;SDS011;1736;52.068;6.968;2023-06-14T10:33:34;5.30;;;2.00;;
3443;SDS011;1736;52.068;6.968;2023-06-14T10:36:16;4.70;;;2.10;;
3443;SDS011;1736;52.068;6.968;2023-06-14T10:38:59;2.03;;;1.90;;
3443;SDS011;1736;52.068;6.968;2023-06-14T10:41:28;1.90;;;1.70;;
3443;SDS011;1736;52.068;6.968;2023-06-14T10:46:57;6.20;;;2.10;;
3443;SDS011;1736;52.068;6.968;2023-06-14T10:49:36;3.93;;;1.80;;
3443;SDS011;1736;52.068;6.968;2023-06-14T10:52:07;1.97;;;1.70;;
3443;SDS011;1736;52.068;6.968;2023-06-14T10:54:36;1.80;;;1.70;;
3443;SDS011;1736;52.068;6.968;2023-06-14T10:57:03;2.30;;;2.00;;
3443;SDS011;1736;52.068;6.968;2023-06-14T10:59:33;2.03;;;1.83;;
3443;SDS011;1736;52.068;6.968;2023-06-14T11:02:06;1.90;;;1.80;;
3443;SDS011;1736;52.068;6.968;2023-06-14T11:04:47;2.90;;;1.77;;
3443;SDS011;1736;52.068;6.968;2023-06-14T11:07:20;2.63;;;1.63;;
3443;SDS011;1736;52.068;6.968;2023-06-14T11:10:05;1.90;;;1.80;;
3443;SDS011;1736;52.068;6.968;2023-06-14T11:12:42;2.20;;;2.00;;
3443;SDS011;1736;52.068;6.968;2023-06-14T11:15:13;3.37;;;1.77;;
3443;SDS011;1736;52.068;6.968;2023-06-14T11:17:50;2.00;;;1.70;;
3443;SDS011;1736;52.068;6.968;2023-06-14T11:20:18;3.20;;;2.20;;
3443;SDS011;1736;52.068;6.968;2023-06-14T11:22:45;1.70;;;1.60;;
3443;SDS011;1736;52.068;6.968;2023-06-14T11:25:12;2.07;;;1.87;;
3443;SDS011;1736;52.068;6.968;2023-06-14T11:27:38;4.20;;;2.40;;
3443;SDS011;1736;52.068;6.968;2023-06-14T11:30:07;4.83;;;2.13;;
3443;SDS011;1736;52.068;6.968;2023-06-14T11:32:34;3.00;;;1.80;;
3443;SDS011;1736;52.068;6.968;2023-06-14T11:35:03;2.40;;;1.80;;
3443;SDS011;1736;52.068;6.968;2023-06-14T11:37:31;1.43;;;1.33;;
3443;SDS011;1736;52.068;6.968;2023-06-14T11:39:59;4.00;;;1.90;;
3443;SDS011;1736;52.068;6.968;2023-06-14T11:42:26;1.70;;;1.60;;
3443;SDS011;1736;52.068;6.968;2023-06-14T11:44:53;3.90;;;1.60;;
3443;SDS011;1736;52.068;6.968;2023-06-14T11:47:20;2.10;;;1.90;;
3443;SDS011;1736;52.068;6.968;2023-06-14T11:49:47;2.10;;;1.90;;
3443;SDS011;1736;52.068;6.968;2023-06-14T11:52:16;1.60;;;1.50;;
3443;SDS011;1736;52.068;6.968;2023-06-14T11:54:44;6.40;;;1.60;;
3443;SDS011;1736;52.068;6.968;2023-06-14T11:57:14;2.90;;;1.70;;
3443;SDS011;1736;52.068;6.968;2023-06-14T11:59:40;1.87;;;1.77;;
3443;SDS011;1736;52.068;6.968;2023-06-14T12:02:09;2.47;;;1.80;;
3443;SDS011;1736;52.068;6.968;2023-06-14T12:04:36;3.90;;;1.73;;
3443;SDS011;1736;52.068;6.968;2023-06-14T12:07:08;2.07;;;1.70;;
3443;SDS011;1736;52.068;6.968;2023-06-14T12:09:38;1.90;;;1.80;;
3443;SDS011;1736;52.068;6.968;2023-06-14T12:12:05;3.60;;;2.20;;
3443;SDS011;1736;52.068;6.968;2023-06-14T12:14:32;2.90;;;1.70;;
3443;SDS011;1736;52.068;6.968;2023-06-14T12:17:03;2.80;;;1.90;;
3443;SDS011;1736;52.068;6.968;2023-06-14T12:19:31;2.73;;;1.93;;
3443;SDS011;1736;52.068;6.968;2023-06-14T12:21:59;2.63;;;2.13;;
3443;SDS011;1736;52.068;6.968;2023-06-14T12:24:29;2.53;;;2.17;;
3443;SDS011;1736;52.068;6.968;2023-06-14T12:26:58;2.57;;;2.03;;
3443;SDS011;1736;52.068;6.968;2023-06-14T12:29:28;3.73;;;1.80;;
3443;SDS011;1736;52.068;6.968;2023-06-14T12:31:54;3.40;;;2.27;;
3443;SDS011;1736;52.068;6.968;2023-06-14T12:34:22;1.77;;;1.67;;
3443;SDS011;1736;52.068;6.968;2023-06-14T12:36:49;1.97;;;1.87;;
3443;SDS011;1736;52.068;6.968;2023-06-14T12:39:16;3.20;;;1.90;;
3443;SDS011;1736;52.068;6.968;2023-06-14T12:41:43;8.33;;;1.87;;
3443;SDS011;1736;52.068;6.968;2023-06-14T12:44:11;2.17;;;2.03;;
3443;SDS011;1736;52.068;6.968;2023-06-14T12:46:38;1.90;;;1.80;;
3443;SDS011;1736;52.068;6.968;2023-06-14T12:49:07;1.70;;;1.60;;
3443;SDS011;1736;52.068;6.968;2023-06-14T12:51:34;3.17;;;2.03;;
3443;SDS011;1736;52.068;6.968;2023-06-14T12:54:01;2.00;;;1.90;;
3443;SDS011;1736;52.068;6.968;2023-06-14T12:56:27;4.40;;;1.90;;
3443;SDS011;1736;52.068;6.968;2023-06-14T12:58:54;2.10;;;1.97;;
3443;SDS011;1736;52.068;6.968;2023-06-14T13:01:22;2.97;;;1.97;;
3443;SDS011;1736;52.068;6.968;2023-06-14T13:03:49;2.27;;;2.17;;
3443;SDS011;1736;52.068;6.968;2023-06-14T13:06:16;2.13;;;2.00;;
3443;SDS011;1736;52.068;6.968;2023-06-14T13:08:43;2.50;;;2.07;;
3443;SDS011;1736;52.068;6.968;2023-06-14T13:11:09;3.13;;;1.80;;
3443;SDS011;1736;52.068;6.968;2023-06-14T13:13:36;1.90;;;1.80;;
3443;SDS011;1736;52.068;6.968;2023-06-14T13:16:03;7.77;;;2.00;;
3443;SDS011;1736;52.068;6.968;2023-06-14T13:18:31;2.83;;;1.97;;
3443;SDS011;1736;52.068;6.968;2023-06-14T13:20:58;2.43;;;2.23;;
3443;SDS011;1736;52.068;6.968;2023-06-14T13:23:24;2.13;;;1.80;;
3443;SDS011;1736;52.068;6.968;2023-06-14T13:25:51;2.40;;;2.20;;
3443;SDS011;1736;52.068;6.968;2023-06-14T13:28:18;2.87;;;1.90;;
3443;SDS011;1736;52.068;6.968;2023-06-14T13:30:46;2.00;;;1.80;;
3443;SDS011;1736;52.068;6.968;2023-06-14T13:33:12;1.90;;;1.80;;
3443;SDS011;1736;52.068;6.968;2023-06-14T13:35:40;2.30;;;1.97;;
3443;SDS011;1736;52.068;6.968;2023-06-14T13:38:07;3.00;;;1.80;;
3443;SDS011;1736;52.068;6.968;2023-06-14T13:40:35;2.10;;;1.90;;
3443;SDS011;1736;52.068;6.968;2023-06-14T13:43:01;3.83;;;1.93;;
3443;SDS011;1736;52.068;6.968;2023-06-14T13:45:28;3.37;;;1.90;;
3443;SDS011;1736;52.068;6.968;2023-06-14T13:47:55;3.23;;;1.77;;
3443;SDS011;1736;52.068;6.968;2023-06-14T13:50:21;1.90;;;1.80;;
3443;SDS011;1736;52.068;6.968;2023-06-14T13:52:49;1.90;;;1.70;;
3443;SDS011;1736;52.068;6.968;2023-06-14T13:55:16;3.80;;;1.70;;
3443;SDS011;1736;52.068;6.968;2023-06-14T13:57:42;4.90;;;2.17;;
3443;SDS011;1736;52.068;6.968;2023-06-14T14:00:10;1.80;;;1.70;;
3443;SDS011;1736;52.068;6.968;2023-06-14T14:02:37;3.03;;;2.23;;
3443;SDS011;1736;52.068;6.968;2023-06-14T14:05:05;3.90;;;2.20;;
3443;SDS011;1736;52.068;6.968;2023-06-14T14:07:32;3.73;;;1.90;;
3443;SDS011;1736;52.068;6.968;2023-06-14T14:09:59;1.97;;;1.77;;
3443;SDS011;1736;52.068;6.968;2023-06-14T14:12:26;4.50;;;2.80;;
3443;SDS011;1736;52.068;6.968;2023-06-14T14:14:53;2.90;;;1.67;;
3443;SDS011;1736;52.068;6.968;2023-06-14T14:17:21;1.77;;;1.67;;
3443;SDS011;1736;52.068;6.968;2023-06-14T14:19:48;3.40;;;2.17;;
3443;SDS011;1736;52.068;6.968;2023-06-14T14:22:14;4.50;;;1.83;;
3443;SDS011;1736;52.068;6.968;2023-06-14T14:24:41;3.10;;;1.77;;
3443;SDS011;1736;52.068;6.968;2023-06-14T14:27:09;4.80;;;2.07;;
3443;SDS011;1736;52.068;6.968;2023-06-14T14:29:36;2.10;;;1.90;;
3443;SDS011;1736;52.068;6.968;2023-06-14T14:32:03;1.80;;;1.70;;
3443;SDS011;1736;52.068;6.968;2023-06-14T14:34:30;2.20;;;2.10;;
3443;SDS011;1736;52.068;6.968;2023-06-14T14:36:57;5.90;;;1.87;;
3443;SDS011;1736;52.068;6.968;2023-06-14T14:39:24;2.63;;;2.20;;
3443;SDS011;1736;52.068;6.968;2023-06-14T14:41:51;3.37;;;2.10;;
3443;SDS011;1736;52.068;6.968;2023-06-14T14:44:19;2.60;;;2.10;;
3443;SDS011;1736;52.068;6.968;2023-06-14T14:46:45;5.30;;;2.33;;
3443;SDS011;1736;52.068;6.968;2023-06-14T14:49:12;2.53;;;2.33;;
3443;SDS011;1736;52.068;6.968;2023-06-14T14:51:38;2.40;;;2.20;;
3443;SDS011;1736;52.068;6.968;2023-06-14T14:54:05;2.20;;;2.10;;
3443;SDS011;1736;52.068;6.968;2023-06-14T14:56:32;4.67;;;2.20;;
3443;SDS011;1736;52.068;6.968;2023-06-14T14:59:00;2.30;;;2.20;;
3443;SDS011;1736;52.068;6.968;2023-06-14T15:01:29;2.27;;;2.03;;
3443;SDS011;1736;52.068;6.968;2023-06-14T15:03:56;2.40;;;2.20;;
3443;SDS011;1736;52.068;6.968;2023-06-14T15:06:22;2.50;;;2.30;;
3443;SDS011;1736;52.068;6.968;2023-06-14T15:08:49;2.50;;;2.30;;
3443;SDS011;1736;52.068;6.968;2023-06-14T15:11:16;2.30;;;2.10;;
3443;SDS011;1736;52.068;6.968;2023-06-14T15:13:43;2.50;;;2.30;;
3443;SDS011;1736;52.068;6.968;2023-06-14T15:16:10;2.17;;;2.03;;
3443;SDS011;1736;52.068;6.968;2023-06-14T15:18:37;3.73;;;2.67;;
3443;SDS011;1736;52.068;6.968;2023-06-14T15:21:04;3.07;;;2.77;;